sensor_id;sensor_type;location;lat;lon;timestamp;temperature;humidity
21861;DHT22;11095;48.066;8.540;2023-01-01T00:01:08;8.30;99.90
21861;DHT22;11095;48.066;8.540;2023-01-01T00:03:34;8.30;99.90
21861;DHT22;11095;48.066;8.540;2023-01-01T00:06:05;8.30;99.90
21861;DHT22;11095;48.066;8.540;2023-01-01T00:08:31;8.30;99.90
21861;DHT22;11095;48.066;8.540;2023-01-01T00:11:03;8.30;99.90
21861;DHT22;11095;48.066;8.540;2023-01-01T00:13:29;8.30;99.90
21861;DHT22;11095;48.066;8.540;2023-01-01T00:15:55;8.20;99.90
21861;DHT22;11095;48.066;8.540;2023-01-01T00:18:21;8.30;99.90
21861;DHT22;11095;48.066;8.540;2023-01-01T00:20:46;8.20;99.90
21861;DHT22;11095;48.066;8.540;2023-01-01T00:23:12;8.20;99.90
21861;DHT22;11095;48.066;8.540;2023-01-01T00:25:41;8.10;99.90
21861;DHT22;11095;48.066;8.540;2023-01-01T00:28:06;8.10;99.90
21861;DHT22;11095;48.066;8.540;2023-01-01T00:30:34;8.10;99.90
21861;DHT22;11095;48.066;8.540;2023-01-01T00:33:00;8.10;99.90
21861;DHT22;11095;48.066;8.540;2023-01-01T00:35:26;8.10;99.90
21861;DHT22;11095;48.066;8.540;2023-01-01T00:37:52;8.00;99.90
21861;DHT22;11095;48.066;8.540;2023-01-01T00:40:18;8.10;99.90
21861;DHT22;11095;48.066;8.540;2023-01-01T00:42:43;8.00;99.90
21861;DHT22;11095;48.066;8.540;2023-01-01T00:45:09;8.00;99.90
21861;DHT22;11095;48.066;8.540;2023-01-01T00:47:35;8.00;99.90
21861;DHT22;11095;48.066;8.540;2023-01-01T00:50:01;8.00;99.90
21861;DHT22;11095;48.066;8.540;2023-01-01T00:52:27;8.00;99.90
21861;DHT22;11095;48.066;8.540;2023-01-01T00:54:52;8.00;99.90
21861;DHT22;11095;48.066;8.540;2023-01-01T00:57:18;8.00;99.90
21861;DHT22;11095;48.066;8.540;2023-01-01T00:59:44;7.90;99.90
21861;DHT22;11095;48.066;8.540;2023-01-01T01:02:09;7.80;99.90
21861;DHT22;11095;48.066;8.540;2023-01-01T01:04:35;7.80;99.90
21861;DHT22;11095;48.066;8.540;2023-01-01T01:07:00;7.70;99.90
21861;DHT22;11095;48.066;8.540;2023-01-01T01:09:26;7.70;99.90
21861;DHT22;11095;48.066;8.540;2023-01-01T01:11:52;7.60;99.90
21861;DHT22;11095;48.066;8.540;2023-01-01T01:14:17;7.60;99.90
21861;DHT22;11095;48.066;8.540;2023-01-01T01:16:43;7.60;99.90
21861;DHT22;11095;48.066;8.540;2023-01-01T01:19:09;7.50;99.90
21861;DHT22;11095;48.066;8.540;2023-01-01T01:21:40;7.50;99.90
21861;DHT22;11095;48.066;8.540;2023-01-01T01:24:06;7.50;99.90
21861;DHT22;11095;48.066;8.540;2023-01-01T01:26:32;7.40;99.90
21861;DHT22;11095;48.066;8.540;2023-01-01T01:28:58;7.40;99.90
21861;DHT22;11095;48.066;8.540;2023-01-01T01:31:27;7.30;99.90
21861;DHT22;11095;48.066;8.540;2023-01-01T01:33:53;7.30;99.90
21861;DHT22;11095;48.066;8.540;2023-01-01T01:36:19;7.30;99.90
21861;DHT22;11095;48.066;8.540;2023-01-01T01:38:44;7.30;99.90
21861;DHT22;11095;48.066;8.540;2023-01-01T01:41:13;7.30;99.90
21861;DHT22;11095;48.066;8.540;2023-01-01T01:46:12;7.20;99.90
21861;DHT22;11095;48.066;8.540;2023-01-01T01:48:42;7.20;99.90
21861;DHT22;11095;48.066;8.540;2023-01-01T01:51:09;7.20;99.90
21861;DHT22;11095;48.066;8.540;2023-01-01T01:53:41;7.20;99.90
21861;DHT22;11095;48.066;8.540;2023-01-01T01:56:12;7.20;99.90
21861;DHT22;11095;48.066;8.540;2023-01-01T01:58:39;7.20;99.90
21861;DHT22;11095;48.066;8.540;2023-01-01T02:01:05;7.20;99.90
21861;DHT22;11095;48.066;8.540;2023-01-01T02:06:00;7.10;99.90
21861;DHT22;11095;48.066;8.540;2023-01-01T02:08:27;7.10;99.90
21861;DHT22;11095;48.066;8.540;2023-01-01T02:10:53;7.10;99.90
21861;DHT22;11095;48.066;8.540;2023-01-01T02:13:18;7.10;99.90
21861;DHT22;11095;48.066;8.540;2023-01-01T02:18:28;7.00;99.90
21861;DHT22;11095;48.066;8.540;2023-01-01T02:21:30;7.00;99.90
21861;DHT22;11095;48.066;8.540;2023-01-01T02:27:04;6.80;99.90
21861;DHT22;11095;48.066;8.540;2023-01-01T02:29:55;6.80;99.90
21861;DHT22;11095;48.066;8.540;2023-01-01T02:32:47;6.70;99.90
21861;DHT22;11095;48.066;8.540;2023-01-01T02:35:29;6.80;99.90
21861;DHT22;11095;48.066;8.540;2023-01-01T02:40:50;6.70;99.90
21861;DHT22;11095;48.066;8.540;2023-01-01T02:43:17;6.70;99.90
21861;DHT22;11095;48.066;8.540;2023-01-01T02:45:43;6.60;99.90
21861;DHT22;11095;48.066;8.540;2023-01-01T02:51:20;6.50;99.90
21861;DHT22;11095;48.066;8.540;2023-01-01T02:57:24;6.40;99.90
21861;DHT22;11095;48.066;8.540;2023-01-01T03:05:06;6.30;99.90
21861;DHT22;11095;48.066;8.540;2023-01-01T03:10:48;6.30;99.90
21861;DHT22;11095;48.066;8.540;2023-01-01T03:13:38;6.30;99.90
21861;DHT22;11095;48.066;8.540;2023-01-01T03:19:04;6.30;99.90
21861;DHT22;11095;48.066;8.540;2023-01-01T03:24:14;6.20;99.90
21861;DHT22;11095;48.066;8.540;2023-01-01T03:26:43;6.10;99.90
21861;DHT22;11095;48.066;8.540;2023-01-01T03:29:12;6.10;99.90
21861;DHT22;11095;48.066;8.540;2023-01-01T03:31:41;6.10;99.90
21861;DHT22;11095;48.066;8.540;2023-01-01T03:34:13;6.00;99.90
21861;DHT22;11095;48.066;8.540;2023-01-01T03:36:43;5.90;99.90
21861;DHT22;11095;48.066;8.540;2023-01-01T03:39:18;5.90;99.90
21861;DHT22;11095;48.066;8.540;2023-01-01T03:42:25;5.90;99.90
21861;DHT22;11095;48.066;8.540;2023-01-01T03:45:19;5.90;99.90
21861;DHT22;11095;48.066;8.540;2023-01-01T03:47:47;5.90;99.90
21861;DHT22;11095;48.066;8.540;2023-01-01T03:50:13;5.90;99.90
21861;DHT22;11095;48.066;8.540;2023-01-01T03:55:31;5.90;99.90
21861;DHT22;11095;48.066;8.540;2023-01-01T04:00:45;6.00;99.90
21861;DHT22;11095;48.066;8.540;2023-01-01T04:03:19;6.00;99.90
21861;DHT22;11095;48.066;8.540;2023-01-01T04:05:46;6.00;99.90
21861;DHT22;11095;48.066;8.540;2023-01-01T04:08:14;6.00;99.90
21861;DHT22;11095;48.066;8.540;2023-01-01T04:10:48;6.00;99.90
21861;DHT22;11095;48.066;8.540;2023-01-01T04:13:15;6.00;99.90
21861;DHT22;11095;48.066;8.540;2023-01-01T04:15:41;6.10;99.90
21861;DHT22;11095;48.066;8.540;2023-01-01T04:18:06;6.10;99.90
21861;DHT22;11095;48.066;8.540;2023-01-01T04:20:32;6.20;99.90
21861;DHT22;11095;48.066;8.540;2023-01-01T04:22:58;6.30;99.90
21861;DHT22;11095;48.066;8.540;2023-01-01T04:25:24;6.30;99.90
21861;DHT22;11095;48.066;8.540;2023-01-01T04:27:50;6.30;99.90
21861;DHT22;11095;48.066;8.540;2023-01-01T04:30:16;6.40;99.90
21861;DHT22;11095;48.066;8.540;2023-01-01T04:32:42;6.40;99.90
21861;DHT22;11095;48.066;8.540;2023-01-01T04:35:09;6.40;99.90
21861;DHT22;11095;48.066;8.540;2023-01-01T04:37:37;6.50;99.90
21861;DHT22;11095;48.066;8.540;2023-01-01T04:40:04;6.50;99.90
21861;DHT22;11095;48.066;8.540;2023-01-01T04:42:30;6.40;99.90
21861;DHT22;11095;48.066;8.540;2023-01-01T04:44:56;6.40;99.90
21861;DHT22;11095;48.066;8.540;2023-01-01T04:47:21;6.40;99.90
21861;DHT22;11095;48.066;8.540;2023-01-01T04:49:47;6.40;99.90
21861;DHT22;11095;48.066;8.540;2023-01-01T04:52:13;6.40;99.90
21861;DHT22;11095;48.066;8.540;2023-01-01T04:54:38;6.40;99.90
21861;DHT22;11095;48.066;8.540;2023-01-01T04:57:04;6.40;99.90
21861;DHT22;11095;48.066;8.540;2023-01-01T04:59:30;6.50;99.90
21861;DHT22;11095;48.066;8.540;2023-01-01T05:01:56;6.60;99.90
21861;DHT22;11095;48.066;8.540;2023-01-01T05:04:22;6.60;99.90
21861;DHT22;11095;48.066;8.540;2023-01-01T05:06:47;6.50;99.90
21861;DHT22;11095;48.066;8.540;2023-01-01T05:09:13;6.50;99.90
21861;DHT22;11095;48.066;8.540;2023-01-01T05:11:39;6.50;99.90
21861;DHT22;11095;48.066;8.540;2023-01-01T05:14:04;6.50;99.90
21861;DHT22;11095;48.066;8.540;2023-01-01T05:16:33;6.60;99.90
21861;DHT22;11095;48.066;8.540;2023-01-01T05:18:59;6.60;99.90
21861;DHT22;11095;48.066;8.540;2023-01-01T05:21:31;6.60;99.90
21861;DHT22;11095;48.066;8.540;2023-01-01T05:23:59;6.60;99.90
21861;DHT22;11095;48.066;8.540;2023-01-01T05:26:28;6.60;99.90
21861;DHT22;11095;48.066;8.540;2023-01-01T05:28:55;6.60;99.90
21861;DHT22;11095;48.066;8.540;2023-01-01T05:31:24;6.60;99.90
21861;DHT22;11095;48.066;8.540;2023-01-01T05:33:50;6.60;99.90
21861;DHT22;11095;48.066;8.540;2023-01-01T05:36:36;6.60;99.90
21861;DHT22;11095;48.066;8.540;2023-01-01T05:39:07;6.60;99.90
21861;DHT22;11095;48.066;8.540;2023-01-01T05:41:32;6.60;99.90
21861;DHT22;11095;48.066;8.540;2023-01-01T05:44:01;6.60;99.90
21861;DHT22;11095;48.066;8.540;2023-01-01T05:46:27;6.60;99.90
21861;DHT22;11095;48.066;8.540;2023-01-01T05:48:53;6.70;99.90
21861;DHT22;11095;48.066;8.540;2023-01-01T05:51:22;6.60;99.90
21861;DHT22;11095;48.066;8.540;2023-01-01T05:53:48;6.60;99.90
21861;DHT22;11095;48.066;8.540;2023-01-01T05:56:15;6.60;99.90
21861;DHT22;11095;48.066;8.540;2023-01-01T05:58:41;6.60;99.90
21861;DHT22;11095;48.066;8.540;2023-01-01T06:03:40;6.60;99.90
21861;DHT22;11095;48.066;8.540;2023-01-01T06:06:12;6.60;99.90
21861;DHT22;11095;48.066;8.540;2023-01-01T06:08:38;6.60;99.90
21861;DHT22;11095;48.066;8.540;2023-01-01T06:11:06;6.60;99.90
21861;DHT22;11095;48.066;8.540;2023-01-01T06:13:32;6.60;99.90
21861;DHT22;11095;48.066;8.540;2023-01-01T06:15:59;6.60;99.90
21861;DHT22;11095;48.066;8.540;2023-01-01T06:18:28;6.70;99.90
21861;DHT22;11095;48.066;8.540;2023-01-01T06:20:54;6.70;99.90
21861;DHT22;11095;48.066;8.540;2023-01-01T06:23:19;6.60;99.90
21861;DHT22;11095;48.066;8.540;2023-01-01T06:25:45;6.60;99.90
21861;DHT22;11095;48.066;8.540;2023-01-01T06:28:11;6.60;99.90
21861;DHT22;11095;48.066;8.540;2023-01-01T06:30:36;6.60;99.90
21861;DHT22;11095;48.066;8.540;2023-01-01T06:33:03;6.60;99.90
21861;DHT22;11095;48.066;8.540;2023-01-01T06:35:29;6.60;99.90
21861;DHT22;11095;48.066;8.540;2023-01-01T06:37:58;6.60;99.90
21861;DHT22;11095;48.066;8.540;2023-01-01T06:40:23;6.60;99.90
21861;DHT22;11095;48.066;8.540;2023-01-01T06:42:49;6.60;99.90
21861;DHT22;11095;48.066;8.540;2023-01-01T06:45:15;6.60;99.90
21861;DHT22;11095;48.066;8.540;2023-01-01T06:47:40;6.60;99.90
21861;DHT22;11095;48.066;8.540;2023-01-01T06:50:06;6.60;99.90
21861;DHT22;11095;48.066;8.540;2023-01-01T06:52:32;6.70;99.90
21861;DHT22;11095;48.066;8.540;2023-01-01T06:54:58;6.70;99.90
21861;DHT22;11095;48.066;8.540;2023-01-01T06:57:24;6.70;99.90
21861;DHT22;11095;48.066;8.540;2023-01-01T06:59:49;6.70;99.90
21861;DHT22;11095;48.066;8.540;2023-01-01T07:02:15;6.70;99.90
21861;DHT22;11095;48.066;8.540;2023-01-01T07:04:40;6.80;99.90
21861;DHT22;11095;48.066;8.540;2023-01-01T07:07:06;6.80;99.90
21861;DHT22;11095;48.066;8.540;2023-01-01T07:09:32;6.80;99.90
21861;DHT22;11095;48.066;8.540;2023-01-01T07:11:57;6.80;99.90
21861;DHT22;11095;48.066;8.540;2023-01-01T07:14:23;6.80;99.90
21861;DHT22;11095;48.066;8.540;2023-01-01T07:16:48;6.90;99.90
21861;DHT22;11095;48.066;8.540;2023-01-01T07:19:14;6.90;99.90
21861;DHT22;11095;48.066;8.540;2023-01-01T07:21:52;6.90;99.90
21861;DHT22;11095;48.066;8.540;2023-01-01T07:24:19;6.90;99.90
21861;DHT22;11095;48.066;8.540;2023-01-01T07:26:44;6.90;99.90
21861;DHT22;11095;48.066;8.540;2023-01-01T07:29:11;6.90;99.90
21861;DHT22;11095;48.066;8.540;2023-01-01T07:31:39;6.90;99.90
21861;DHT22;11095;48.066;8.540;2023-01-01T07:34:14;7.00;99.90
21861;DHT22;11095;48.066;8.540;2023-01-01T07:36:40;7.10;99.90
21861;DHT22;11095;48.066;8.540;2023-01-01T07:39:06;7.20;99.90
21861;DHT22;11095;48.066;8.540;2023-01-01T07:41:31;7.50;99.90
21861;DHT22;11095;48.066;8.540;2023-01-01T07:43:57;7.90;99.90
21861;DHT22;11095;48.066;8.540;2023-01-01T07:46:23;8.40;99.90
21861;DHT22;11095;48.066;8.540;2023-01-01T07:48:48;8.80;99.90
21861;DHT22;11095;48.066;8.540;2023-01-01T07:51:14;9.10;99.90
21861;DHT22;11095;48.066;8.540;2023-01-01T07:53:39;9.30;99.90
21861;DHT22;11095;48.066;8.540;2023-01-01T07:56:05;9.60;99.90
21861;DHT22;11095;48.066;8.540;2023-01-01T07:58:31;9.80;99.90
21861;DHT22;11095;48.066;8.540;2023-01-01T08:00:57;9.80;99.90
21861;DHT22;11095;48.066;8.540;2023-01-01T08:03:22;9.90;99.90
21861;DHT22;11095;48.066;8.540;2023-01-01T08:05:48;9.80;99.90
21861;DHT22;11095;48.066;8.540;2023-01-01T08:08:14;9.70;99.90
21861;DHT22;11095;48.066;8.540;2023-01-01T08:10:39;9.70;99.90
21861;DHT22;11095;48.066;8.540;2023-01-01T08:13:07;9.70;99.90
21861;DHT22;11095;48.066;8.540;2023-01-01T08:15:33;9.60;99.90
21861;DHT22;11095;48.066;8.540;2023-01-01T08:18:01;9.60;99.90
21861;DHT22;11095;48.066;8.540;2023-01-01T08:20:28;9.60;99.90
21861;DHT22;11095;48.066;8.540;2023-01-01T08:22:54;9.50;99.90
21861;DHT22;11095;48.066;8.540;2023-01-01T08:25:20;9.50;99.90
21861;DHT22;11095;48.066;8.540;2023-01-01T08:27:46;9.50;99.90
21861;DHT22;11095;48.066;8.540;2023-01-01T08:30:13;9.50;99.90
21861;DHT22;11095;48.066;8.540;2023-01-01T08:32:39;9.60;99.90
21861;DHT22;11095;48.066;8.540;2023-01-01T08:35:05;9.70;99.90
21861;DHT22;11095;48.066;8.540;2023-01-01T08:37:31;9.60;99.90
21861;DHT22;11095;48.066;8.540;2023-01-01T08:39:57;9.50;99.90
21861;DHT22;11095;48.066;8.540;2023-01-01T08:42:22;9.50;99.90
21861;DHT22;11095;48.066;8.540;2023-01-01T08:44:48;9.60;99.90
21861;DHT22;11095;48.066;8.540;2023-01-01T08:47:18;9.60;99.90
21861;DHT22;11095;48.066;8.540;2023-01-01T08:49:44;9.90;99.90
21861;DHT22;11095;48.066;8.540;2023-01-01T08:52:10;10.20;99.90
21861;DHT22;11095;48.066;8.540;2023-01-01T08:54:35;10.70;99.90
21861;DHT22;11095;48.066;8.540;2023-01-01T08:57:01;11.10;99.90
21861;DHT22;11095;48.066;8.540;2023-01-01T08:59:26;11.50;99.90
21861;DHT22;11095;48.066;8.540;2023-01-01T09:01:52;11.70;99.90
21861;DHT22;11095;48.066;8.540;2023-01-01T09:04:18;12.00;99.90
21861;DHT22;11095;48.066;8.540;2023-01-01T09:06:43;12.30;99.90
21861;DHT22;11095;48.066;8.540;2023-01-01T09:09:09;12.60;99.90
21861;DHT22;11095;48.066;8.540;2023-01-01T09:11:35;12.90;99.90
21861;DHT22;11095;48.066;8.540;2023-01-01T09:14:00;13.20;99.90
21861;DHT22;11095;48.066;8.540;2023-01-01T09:16:26;13.50;99.90
21861;DHT22;11095;48.066;8.540;2023-01-01T09:18:52;13.90;99.90
21861;DHT22;11095;48.066;8.540;2023-01-01T09:21:18;14.20;99.90
21861;DHT22;11095;48.066;8.540;2023-01-01T09:23:44;14.50;99.90
21861;DHT22;11095;48.066;8.540;2023-01-01T09:26:10;14.80;99.90
21861;DHT22;11095;48.066;8.540;2023-01-01T09:28:36;15.10;99.90
21861;DHT22;11095;48.066;8.540;2023-01-01T09:31:03;15.20;99.90
21861;DHT22;11095;48.066;8.540;2023-01-01T09:33:31;15.30;99.90
21861;DHT22;11095;48.066;8.540;2023-01-01T09:36:13;15.20;99.90
21861;DHT22;11095;48.066;8.540;2023-01-01T09:38:39;15.10;99.90
21861;DHT22;11095;48.066;8.540;2023-01-01T09:44:21;14.80;99.90
21861;DHT22;11095;48.066;8.540;2023-01-01T09:46:52;14.50;99.90
21861;DHT22;11095;48.066;8.540;2023-01-01T09:49:28;14.30;99.90
21861;DHT22;11095;48.066;8.540;2023-01-01T09:51:56;14.40;99.90
21861;DHT22;11095;48.066;8.540;2023-01-01T09:54:31;14.50;99.90
21861;DHT22;11095;48.066;8.540;2023-01-01T09:57:02;14.80;99.90
21861;DHT22;11095;48.066;8.540;2023-01-01T09:59:29;15.20;99.90
21861;DHT22;11095;48.066;8.540;2023-01-01T10:05:07;15.60;99.90
21861;DHT22;11095;48.066;8.540;2023-01-01T10:10:33;15.80;99.90
21861;DHT22;11095;48.066;8.540;2023-01-01T10:16:41;15.60;99.90
21861;DHT22;11095;48.066;8.540;2023-01-01T10:18:50;15.60;99.90
21861;DHT22;11095;48.066;8.540;2023-01-01T10:21:37;15.70;99.90
21861;DHT22;11095;48.066;8.540;2023-01-01T10:24:29;15.80;99.90
21861;DHT22;11095;48.066;8.540;2023-01-01T10:26:56;15.70;99.90
21861;DHT22;11095;48.066;8.540;2023-01-01T10:29:44;15.80;99.90
21861;DHT22;11095;48.066;8.540;2023-01-01T10:32:31;16.00;99.90
21861;DHT22;11095;48.066;8.540;2023-01-01T10:34:58;16.30;99.90
21861;DHT22;11095;48.066;8.540;2023-01-01T10:37:29;16.70;99.90
21861;DHT22;11095;48.066;8.540;2023-01-01T10:39:55;17.20;99.90
21861;DHT22;11095;48.066;8.540;2023-01-01T10:42:21;17.90;99.90
21861;DHT22;11095;48.066;8.540;2023-01-01T10:44:49;18.40;99.90
21861;DHT22;11095;48.066;8.540;2023-01-01T10:47:26;18.90;99.90
21861;DHT22;11095;48.066;8.540;2023-01-01T10:50:04;19.40;99.90
21861;DHT22;11095;48.066;8.540;2023-01-01T10:52:38;19.80;99.90
21861;DHT22;11095;48.066;8.540;2023-01-01T10:55:20;19.20;99.90
21861;DHT22;11095;48.066;8.540;2023-01-01T10:57:47;17.80;99.90
21861;DHT22;11095;48.066;8.540;2023-01-01T11:00:24;16.60;99.90
21861;DHT22;11095;48.066;8.540;2023-01-01T11:05:34;15.30;99.90
21861;DHT22;11095;48.066;8.540;2023-01-01T11:08:00;14.90;99.90
21861;DHT22;11095;48.066;8.540;2023-01-01T11:10:26;14.60;99.90
21861;DHT22;11095;48.066;8.540;2023-01-01T11:12:53;14.40;99.90
21861;DHT22;11095;48.066;8.540;2023-01-01T11:15:35;14.30;99.90
21861;DHT22;11095;48.066;8.540;2023-01-01T11:18:10;14.20;99.90
21861;DHT22;11095;48.066;8.540;2023-01-01T11:20:36;14.10;99.90
21861;DHT22;11095;48.066;8.540;2023-01-01T11:23:27;14.00;99.90
21861;DHT22;11095;48.066;8.540;2023-01-01T11:28:34;13.90;99.90
21861;DHT22;11095;48.066;8.540;2023-01-01T11:31:11;13.80;99.90
21861;DHT22;11095;48.066;8.540;2023-01-01T11:33:51;13.70;99.90
21861;DHT22;11095;48.066;8.540;2023-01-01T11:36:27;13.70;99.90
21861;DHT22;11095;48.066;8.540;2023-01-01T11:41:49;13.60;99.90
21861;DHT22;11095;48.066;8.540;2023-01-01T11:44:33;13.60;99.90
21861;DHT22;11095;48.066;8.540;2023-01-01T11:47:00;13.60;99.90
21861;DHT22;11095;48.066;8.540;2023-01-01T11:49:28;13.60;99.90
21861;DHT22;11095;48.066;8.540;2023-01-01T11:51:54;13.60;99.90
21861;DHT22;11095;48.066;8.540;2023-01-01T11:54:31;13.70;99.90
21861;DHT22;11095;48.066;8.540;2023-01-01T11:57:09;13.70;99.90
21861;DHT22;11095;48.066;8.540;2023-01-01T11:59:51;13.60;99.90
21861;DHT22;11095;48.066;8.540;2023-01-01T12:02:31;13.60;99.90
21861;DHT22;11095;48.066;8.540;2023-01-01T12:05:07;13.60;99.90
21861;DHT22;11095;48.066;8.540;2023-01-01T12:07:36;13.60;99.90
21861;DHT22;11095;48.066;8.540;2023-01-01T12:13:00;13.60;99.90
21861;DHT22;11095;48.066;8.540;2023-01-01T12:15:41;13.60;99.90
21861;DHT22;11095;48.066;8.540;2023-01-01T12:18:17;13.60;99.90
21861;DHT22;11095;48.066;8.540;2023-01-01T12:23:22;13.60;99.90
21861;DHT22;11095;48.066;8.540;2023-01-01T12:26:33;13.60;99.90
21861;DHT22;11095;48.066;8.540;2023-01-01T12:29:25;13.60;99.90
21861;DHT22;11095;48.066;8.540;2023-01-01T12:48:25;13.40;99.90
21861;DHT22;11095;48.066;8.540;2023-01-01T12:51:24;13.40;99.90
21861;DHT22;11095;48.066;8.540;2023-01-01T12:59:43;13.60;99.90
21861;DHT22;11095;48.066;8.540;2023-01-01T13:02:15;13.60;99.90
21861;DHT22;11095;48.066;8.540;2023-01-01T13:04:45;13.70;99.90
21861;DHT22;11095;48.066;8.540;2023-01-01T13:07:12;13.70;99.90
21861;DHT22;11095;48.066;8.540;2023-01-01T13:09:41;13.70;99.90
21861;DHT22;11095;48.066;8.540;2023-01-01T13:12:20;13.70;99.90
21861;DHT22;11095;48.066;8.540;2023-01-01T13:14:48;13.70;99.90
21861;DHT22;11095;48.066;8.540;2023-01-01T13:17:22;13.60;99.90
21861;DHT22;11095;48.066;8.540;2023-01-01T13:19:55;13.60;99.90
21861;DHT22;11095;48.066;8.540;2023-01-01T13:38:58;13.50;99.90
21861;DHT22;11095;48.066;8.540;2023-01-01T13:41:38;13.50;99.90
21861;DHT22;11095;48.066;8.540;2023-01-01T13:46:33;13.60;99.90
21861;DHT22;11095;48.066;8.540;2023-01-01T13:55:09;13.70;99.90
21861;DHT22;11095;48.066;8.540;2023-01-01T13:58:21;13.70;99.90
21861;DHT22;11095;48.066;8.540;2023-01-01T14:03:44;13.60;99.90
21861;DHT22;11095;48.066;8.540;2023-01-01T14:06:18;13.50;99.90
21861;DHT22;11095;48.066;8.540;2023-01-01T14:09:32;13.50;99.90
21861;DHT22;11095;48.066;8.540;2023-01-01T14:11:51;13.50;99.90
21861;DHT22;11095;48.066;8.540;2023-01-01T14:14:18;13.40;99.90
21861;DHT22;11095;48.066;8.540;2023-01-01T14:16:53;13.40;99.90
21861;DHT22;11095;48.066;8.540;2023-01-01T14:19:20;13.30;99.90
21861;DHT22;11095;48.066;8.540;2023-01-01T14:21:47;13.30;99.90
21861;DHT22;11095;48.066;8.540;2023-01-01T14:24:15;13.20;99.90
21861;DHT22;11095;48.066;8.540;2023-01-01T14:26:42;13.10;99.90
21861;DHT22;11095;48.066;8.540;2023-01-01T14:29:12;13.00;99.90
21861;DHT22;11095;48.066;8.540;2023-01-01T14:31:43;13.00;99.90
21861;DHT22;11095;48.066;8.540;2023-01-01T14:34:22;13.00;99.90
21861;DHT22;11095;48.066;8.540;2023-01-01T14:37:02;13.00;99.90
21861;DHT22;11095;48.066;8.540;2023-01-01T14:39:36;12.90;99.90
21861;DHT22;11095;48.066;8.540;2023-01-01T14:42:04;12.90;99.90
21861;DHT22;11095;48.066;8.540;2023-01-01T14:44:36;12.80;99.90
21861;DHT22;11095;48.066;8.540;2023-01-01T14:47:03;12.80;99.90
21861;DHT22;11095;48.066;8.540;2023-01-01T14:49:35;12.70;99.90
21861;DHT22;11095;48.066;8.540;2023-01-01T14:52:15;12.60;99.90
21861;DHT22;11095;48.066;8.540;2023-01-01T14:54:43;12.60;99.90
21861;DHT22;11095;48.066;8.540;2023-01-01T14:57:12;12.50;99.90
21861;DHT22;11095;48.066;8.540;2023-01-01T14:59:49;12.50;99.90
21861;DHT22;11095;48.066;8.540;2023-01-01T15:02:33;12.40;99.90
21861;DHT22;11095;48.066;8.540;2023-01-01T15:07:55;12.30;99.90
21861;DHT22;11095;48.066;8.540;2023-01-01T15:10:22;12.20;99.90
21861;DHT22;11095;48.066;8.540;2023-01-01T15:12:47;12.20;99.90
21861;DHT22;11095;48.066;8.540;2023-01-01T15:15:34;12.10;99.90
21861;DHT22;11095;48.066;8.540;2023-01-01T15:18:00;12.10;99.90
21861;DHT22;11095;48.066;8.540;2023-01-01T15:20:25;12.00;99.90
21861;DHT22;11095;48.066;8.540;2023-01-01T15:22:51;11.90;99.90
21861;DHT22;11095;48.066;8.540;2023-01-01T15:25:18;11.80;99.90
21861;DHT22;11095;48.066;8.540;2023-01-01T15:27:54;11.70;99.90
21861;DHT22;11095;48.066;8.540;2023-01-01T15:30:29;11.70;99.90
21861;DHT22;11095;48.066;8.540;2023-01-01T15:32:55;11.60;99.90
21861;DHT22;11095;48.066;8.540;2023-01-01T15:35:32;11.50;99.90
21861;DHT22;11095;48.066;8.540;2023-01-01T15:38:02;11.40;99.90
21861;DHT22;11095;48.066;8.540;2023-01-01T15:40:29;11.40;99.90
21861;DHT22;11095;48.066;8.540;2023-01-01T15:47:54;11.10;99.90
21861;DHT22;11095;48.066;8.540;2023-01-01T15:50:29;11.10;99.90
21861;DHT22;11095;48.066;8.540;2023-01-01T15:52:58;11.00;99.90
21861;DHT22;11095;48.066;8.540;2023-01-01T15:55:26;11.00;99.90
21861;DHT22;11095;48.066;8.540;2023-01-01T15:57:54;10.90;99.90
21861;DHT22;11095;48.066;8.540;2023-01-01T16:00:28;10.90;99.90
21861;DHT22;11095;48.066;8.540;2023-01-01T16:02:58;10.80;99.90
21861;DHT22;11095;48.066;8.540;2023-01-01T16:05:25;10.70;99.90
21861;DHT22;11095;48.066;8.540;2023-01-01T16:08:03;10.70;99.90
21861;DHT22;11095;48.066;8.540;2023-01-01T16:10:30;10.60;99.90
21861;DHT22;11095;48.066;8.540;2023-01-01T16:12:58;10.50;99.90
21861;DHT22;11095;48.066;8.540;2023-01-01T16:15:24;10.40;99.90
21861;DHT22;11095;48.066;8.540;2023-01-01T16:17:51;10.40;99.90
21861;DHT22;11095;48.066;8.540;2023-01-01T16:20:18;10.40;99.90
21861;DHT22;11095;48.066;8.540;2023-01-01T16:22:44;10.40;99.90
21861;DHT22;11095;48.066;8.540;2023-01-01T16:25:20;10.40;99.90
21861;DHT22;11095;48.066;8.540;2023-01-01T16:27:47;10.40;99.90
21861;DHT22;11095;48.066;8.540;2023-01-01T16:30:13;10.30;99.90
21861;DHT22;11095;48.066;8.540;2023-01-01T16:32:39;10.30;99.90
21861;DHT22;11095;48.066;8.540;2023-01-01T16:35:06;10.20;99.90
21861;DHT22;11095;48.066;8.540;2023-01-01T16:37:35;10.10;99.90
21861;DHT22;11095;48.066;8.540;2023-01-01T16:40:01;10.00;99.90
21861;DHT22;11095;48.066;8.540;2023-01-01T16:42:26;9.80;99.90
21861;DHT22;11095;48.066;8.540;2023-01-01T16:44:52;9.70;99.90
21861;DHT22;11095;48.066;8.540;2023-01-01T16:47:19;9.60;99.90
21861;DHT22;11095;48.066;8.540;2023-01-01T16:49:44;9.50;99.90
21861;DHT22;11095;48.066;8.540;2023-01-01T16:52:10;9.40;99.90
21861;DHT22;11095;48.066;8.540;2023-01-01T16:54:36;9.40;99.90
21861;DHT22;11095;48.066;8.540;2023-01-01T16:57:01;9.30;99.90
21861;DHT22;11095;48.066;8.540;2023-01-01T16:59:27;9.30;99.90
21861;DHT22;11095;48.066;8.540;2023-01-01T17:01:52;9.20;99.90
21861;DHT22;11095;48.066;8.540;2023-01-01T17:04:18;9.10;99.90
21861;DHT22;11095;48.066;8.540;2023-01-01T17:06:44;9.10;99.90
21861;DHT22;11095;48.066;8.540;2023-01-01T17:09:09;9.00;99.90
21861;DHT22;11095;48.066;8.540;2023-01-01T17:11:35;9.00;99.90
21861;DHT22;11095;48.066;8.540;2023-01-01T17:14:03;9.00;99.90
21861;DHT22;11095;48.066;8.540;2023-01-01T17:16:31;8.90;99.90
21861;DHT22;11095;48.066;8.540;2023-01-01T17:18:57;8.80;99.90
21861;DHT22;11095;48.066;8.540;2023-01-01T17:21:23;8.80;99.90
21861;DHT22;11095;48.066;8.540;2023-01-01T17:23:49;8.70;99.90
21861;DHT22;11095;48.066;8.540;2023-01-01T17:26:18;8.60;99.90
21861;DHT22;11095;48.066;8.540;2023-01-01T17:28:45;8.50;99.90
21861;DHT22;11095;48.066;8.540;2023-01-01T17:31:13;8.50;99.90
21861;DHT22;11095;48.066;8.540;2023-01-01T17:33:40;8.40;99.90
21861;DHT22;11095;48.066;8.540;2023-01-01T17:36:08;8.30;99.90
21861;DHT22;11095;48.066;8.540;2023-01-01T17:38:35;8.30;99.90
21861;DHT22;11095;48.066;8.540;2023-01-01T17:41:06;8.20;99.90
21861;DHT22;11095;48.066;8.540;2023-01-01T17:43:33;8.10;99.90
21861;DHT22;11095;48.066;8.540;2023-01-01T17:46:04;8.00;99.90
21861;DHT22;11095;48.066;8.540;2023-01-01T17:48:30;8.00;99.90
21861;DHT22;11095;48.066;8.540;2023-01-01T17:50:55;7.90;99.90
21861;DHT22;11095;48.066;8.540;2023-01-01T17:53:21;7.80;99.90
21861;DHT22;11095;48.066;8.540;2023-01-01T17:55:47;7.80;99.90
21861;DHT22;11095;48.066;8.540;2023-01-01T17:58:12;7.70;99.90
21861;DHT22;11095;48.066;8.540;2023-01-01T18:00:38;7.60;99.90